< < Back
Terminal Aerodrome Forecast


Current Version              Previous Versions:   1  2  3  4  5  6  7  8  9  

Terminal Aerodrome Forecast

851
FTUS44 KBMX 241737
TAFMGM
TAF
KMGM 241737Z 2418/2518 13007KT P6SM SCT050
     FM250000 VRB02KT P6SM SCT250=

Latest METAR

927
SAUS80 KWBC 251000 RRB
MTRMGM
METAR KMGM 250953Z 00000KT 10SM CLR 25/22 A3003 RMK AO2 SLP166
T02500222


USA.gov is the U.S. government's official web portal to all federal, state and local government web resources and services.